createdAt,value
2018-06-27T00:00:51.502Z,1018.57
2018-06-27T00:01:51.494Z,1018.56
2018-06-27T00:02:51.491Z,1018.57
2018-06-27T00:03:51.481Z,1018.57
2018-06-27T00:04:51.471Z,1018.55
2018-06-27T00:05:51.460Z,1018.55
2018-06-27T00:06:51.453Z,1018.59
2018-06-27T00:07:51.444Z,1018.55
2018-06-27T00:08:51.442Z,1018.56
2018-06-27T00:09:51.436Z,1018.54
2018-06-27T00:10:51.438Z,1018.56
2018-06-27T00:11:51.414Z,1018.58
2018-06-27T00:12:51.409Z,1018.55
2018-06-27T00:13:51.403Z,1018.58
2018-06-27T00:14:51.391Z,1018.57
2018-06-27T00:15:51.385Z,1018.59
2018-06-27T00:16:51.379Z,1018.59
2018-06-27T00:17:51.370Z,1018.55
2018-06-27T00:18:51.364Z,1018.56
2018-06-27T00:19:51.355Z,1018.55
2018-06-27T00:20:51.349Z,1018.56
2018-06-27T00:21:51.347Z,1018.56
2018-06-27T00:22:51.333Z,1018.56
2018-06-27T00:23:51.331Z,1018.55
2018-06-27T00:24:51.320Z,1018.56
2018-06-27T00:25:51.310Z,1018.55
2018-06-27T00:26:51.304Z,1018.56
2018-06-27T00:27:51.308Z,1018.54
2018-06-27T00:28:51.293Z,1018.54
2018-06-27T00:29:51.285Z,1018.53
2018-06-27T00:30:51.274Z,1018.53
2018-06-27T00:31:51.264Z,1018.54
2018-06-27T00:32:51.262Z,1018.53
2018-06-27T00:33:51.314Z,1018.56
2018-06-27T00:34:51.247Z,1018.57
2018-06-27T00:35:51.236Z,1018.53
2018-06-27T00:36:51.234Z,1018.55
2018-06-27T00:37:51.228Z,1018.58
2018-06-27T00:38:51.213Z,1018.54
2018-06-27T00:39:51.205Z,1018.55
2018-06-27T00:40:51.199Z,1018.57
2018-06-27T00:41:51.195Z,1018.54
2018-06-27T00:42:51.185Z,1018.55
2018-06-27T00:43:51.179Z,1018.54
2018-06-27T00:44:51.169Z,1018.53
2018-06-27T00:45:51.163Z,1018.52
2018-06-27T00:46:51.151Z,1018.53
2018-06-27T00:47:51.144Z,1018.53
2018-06-27T00:48:51.139Z,1018.53
2018-06-27T00:49:51.151Z,1018.54
2018-06-27T00:50:51.126Z,1018.52
2018-06-27T00:51:51.116Z,1018.53
2018-06-27T00:52:51.105Z,1018.53
2018-06-27T00:53:51.097Z,1018.50
2018-06-27T00:54:51.101Z,1018.49
2018-06-27T00:55:51.082Z,1018.52
2018-06-27T00:56:51.081Z,1018.46
2018-06-27T00:57:51.069Z,1018.44
2018-06-27T00:58:51.057Z,1018.48
2018-06-27T00:59:51.053Z,1018.44
2018-06-27T01:00:51.056Z,1018.47
2018-06-27T01:01:51.055Z,1018.44
2018-06-27T01:02:51.039Z,1018.44
2018-06-27T01:03:51.023Z,1018.48
2018-06-27T01:04:51.016Z,1018.46
2018-06-27T01:05:51.016Z,1018.45
2018-06-27T01:06:51.000Z,1018.46
2018-06-27T01:07:50.990Z,1018.46
2018-06-27T01:08:50.987Z,1018.48
2018-06-27T01:09:50.977Z,1018.46
2018-06-27T01:10:50.974Z,1018.46
2018-06-27T01:11:50.962Z,1018.45
2018-06-27T01:12:50.955Z,1018.44
2018-06-27T01:13:50.945Z,1018.49
2018-06-27T01:14:50.935Z,1018.49
2018-06-27T01:15:50.931Z,1018.46
2018-06-27T01:16:50.927Z,1018.50
2018-06-27T01:17:50.921Z,1018.48
2018-06-27T01:18:50.911Z,1018.48
2018-06-27T01:19:50.903Z,1018.50
2018-06-27T01:20:50.892Z,1018.50
2018-06-27T01:21:50.882Z,1018.51
2018-06-27T01:22:50.877Z,1018.51
2018-06-27T01:23:50.870Z,1018.51
2018-06-27T01:24:50.863Z,1018.52
2018-06-27T01:25:50.853Z,1018.51
2018-06-27T01:26:50.845Z,1018.54
2018-06-27T01:27:50.837Z,1018.55
2018-06-27T01:28:50.827Z,1018.53
2018-06-27T01:29:50.831Z,1018.52
2018-06-27T01:30:50.817Z,1018.50
2018-06-27T01:31:50.811Z,1018.50
2018-06-27T01:32:50.803Z,1018.51
2018-06-27T01:33:50.791Z,1018.55
2018-06-27T01:34:50.783Z,1018.58
2018-06-27T01:35:50.777Z,1018.59
2018-06-27T01:36:50.772Z,1018.56
2018-06-27T01:37:50.761Z,1018.59
2018-06-27T01:38:50.758Z,1018.59
2018-06-27T01:39:50.746Z,1018.54
2018-06-27T01:40:50.736Z,1018.58
2018-06-27T01:41:50.735Z,1018.60
2018-06-27T01:42:50.728Z,1018.62
2018-06-27T01:43:50.727Z,1018.63
2018-06-27T01:44:50.708Z,1018.60
2018-06-27T01:45:50.701Z,1018.65
2018-06-27T01:46:50.692Z,1018.61
2018-06-27T01:47:50.683Z,1018.62
2018-06-27T01:48:50.681Z,1018.62
2018-06-27T01:49:50.668Z,1018.63
2018-06-27T01:50:50.667Z,1018.61
2018-06-27T01:51:50.656Z,1018.64
2018-06-27T01:52:50.647Z,1018.65
2018-06-27T01:53:50.638Z,1018.67
2018-06-27T01:54:50.628Z,1018.70
2018-06-27T01:55:50.620Z,1018.69
2018-06-27T01:56:50.618Z,1018.68
2018-06-27T01:57:50.606Z,1018.72
2018-06-27T01:58:50.597Z,1018.72
2018-06-27T01:59:50.591Z,1018.73
2018-06-27T02:00:50.586Z,1018.69
2018-06-27T02:01:50.577Z,1018.70
2018-06-27T02:02:50.564Z,1018.70
2018-06-27T02:03:50.558Z,1018.70
2018-06-27T02:04:50.555Z,1018.71
2018-06-27T02:05:50.546Z,1018.69
2018-06-27T02:06:50.538Z,1018.73
2018-06-27T02:07:50.529Z,1018.76
2018-06-27T02:08:50.543Z,1018.74
2018-06-27T02:09:50.510Z,1018.76
2018-06-27T02:10:50.500Z,1018.73
2018-06-27T02:11:50.499Z,1018.74
2018-06-27T02:12:50.495Z,1018.74
2018-06-27T02:13:50.481Z,1018.74
2018-06-27T02:14:50.502Z,1018.73
2018-06-27T02:15:50.463Z,1018.68
2018-06-27T02:16:50.456Z,1018.68
2018-06-27T02:17:50.448Z,1018.73
2018-06-27T02:18:50.446Z,1018.67
2018-06-27T02:19:50.436Z,1018.70
2018-06-27T02:20:50.428Z,1018.67
2018-06-27T02:21:50.418Z,1018.67
2018-06-27T02:22:50.407Z,1018.71
2018-06-27T02:23:50.403Z,1018.70
2018-06-27T02:24:50.392Z,1018.76
2018-06-27T02:25:50.391Z,1018.76
2018-06-27T02:26:50.383Z,1018.74
2018-06-27T02:27:50.372Z,1018.73
2018-06-27T02:28:50.366Z,1018.73
2018-06-27T02:29:50.357Z,1018.70
2018-06-27T02:30:50.349Z,1018.76
2018-06-27T02:31:50.340Z,1018.71
2018-06-27T02:32:50.336Z,1018.73
2018-06-27T02:33:50.329Z,1018.74
2018-06-27T02:34:50.316Z,1018.74
2018-06-27T02:35:50.306Z,1018.73
2018-06-27T02:36:50.297Z,1018.71
2018-06-27T02:37:50.345Z,1018.72
2018-06-27T02:38:50.283Z,1018.71
2018-06-27T02:39:50.276Z,1018.70
2018-06-27T02:40:50.286Z,1018.70
2018-06-27T02:41:50.267Z,1018.79
2018-06-27T02:42:50.249Z,1018.76
2018-06-27T02:43:50.249Z,1018.74
2018-06-27T02:44:50.235Z,1018.79
2018-06-27T02:45:50.244Z,1018.77
2018-06-27T02:46:50.227Z,1018.79
2018-06-27T02:47:50.216Z,1018.78
2018-06-27T02:48:50.213Z,1018.78
2018-06-27T02:49:50.263Z,1018.78
2018-06-27T02:50:50.186Z,1018.78
2018-06-27T02:51:50.182Z,1018.75
2018-06-27T02:52:50.172Z,1018.75
2018-06-27T02:53:50.170Z,1018.76
2018-06-27T02:54:50.184Z,1018.74
2018-06-27T02:55:50.157Z,1018.73
2018-06-27T02:56:50.144Z,1018.74
2018-06-27T02:57:50.134Z,1018.72
2018-06-27T02:58:50.127Z,1018.76
2018-06-27T02:59:50.143Z,1018.74
2018-06-27T03:00:50.109Z,1018.76
2018-06-27T03:01:50.106Z,1018.73
2018-06-27T03:02:50.095Z,1018.76
2018-06-27T03:03:50.087Z,1018.73
2018-06-27T03:04:50.078Z,1018.70
2018-06-27T03:05:50.073Z,1018.72
2018-06-27T03:06:50.061Z,1018.70
2018-06-27T03:07:50.053Z,1018.73
2018-06-27T03:08:50.053Z,1018.72
2018-06-27T03:09:50.039Z,1018.71
2018-06-27T03:10:50.033Z,1018.71
2018-06-27T03:11:50.025Z,1018.75
2018-06-27T03:12:50.014Z,1018.71
2018-06-27T03:13:50.007Z,1018.73
2018-06-27T03:14:50.031Z,1018.74
2018-06-27T03:15:49.997Z,1018.78
2018-06-27T03:16:49.989Z,1018.78
2018-06-27T03:17:49.974Z,1018.79
2018-06-27T03:18:49.968Z,1018.77
2018-06-27T03:19:49.961Z,1018.75
2018-06-27T03:20:49.953Z,1018.77
2018-06-27T03:21:49.949Z,1018.79
2018-06-27T03:22:49.937Z,1018.78
2018-06-27T03:23:49.929Z,1018.83
2018-06-27T03:24:49.922Z,1018.83
2018-06-27T03:25:49.913Z,1018.85
2018-06-27T03:26:49.909Z,1018.84
2018-06-27T03:27:49.907Z,1018.85
2018-06-27T03:28:49.891Z,1018.82
2018-06-27T03:29:49.889Z,1018.86
2018-06-27T03:30:49.875Z,1018.85
2018-06-27T03:31:49.866Z,1018.81
2018-06-27T03:32:49.856Z,1018.79
2018-06-27T03:33:49.956Z,1018.79
2018-06-27T03:34:49.843Z,1018.84
2018-06-27T03:35:49.839Z,1018.79
2018-06-27T03:36:49.831Z,1018.78
2018-06-27T03:37:49.820Z,1018.80
2018-06-27T03:38:49.816Z,1018.78
2018-06-27T03:39:49.804Z,1018.79
2018-06-27T03:40:49.795Z,1018.77
2018-06-27T03:41:49.797Z,1018.76
2018-06-27T03:42:49.779Z,1018.81
2018-06-27T03:43:49.772Z,1018.75
2018-06-27T03:44:49.767Z,1018.75
2018-06-27T03:45:49.757Z,1018.74
2018-06-27T03:46:49.742Z,1018.78
2018-06-27T03:47:49.735Z,1018.76
2018-06-27T03:48:49.733Z,1018.76
2018-06-27T03:49:49.730Z,1018.78
2018-06-27T03:50:49.720Z,1018.76
2018-06-27T03:51:49.705Z,1018.75
2018-06-27T03:52:49.704Z,1018.77
2018-06-27T03:53:49.689Z,1018.78
2018-06-27T03:54:49.679Z,1018.77
2018-06-27T03:55:49.674Z,1018.76
2018-06-27T03:56:49.667Z,1018.75
2018-06-27T03:57:49.662Z,1018.74
2018-06-27T03:58:49.652Z,1018.77
2018-06-27T03:59:49.644Z,1018.80
2018-06-27T04:00:49.633Z,1018.80
2018-06-27T04:01:49.630Z,1018.77
2018-06-27T04:02:49.621Z,1018.77
2018-06-27T04:03:49.614Z,1018.76
2018-06-27T04:04:50.438Z,1018.74
2018-06-27T04:05:49.594Z,1018.76
2018-06-27T04:06:49.587Z,1018.76
2018-06-27T04:07:49.585Z,1018.78
2018-06-27T04:08:49.571Z,1018.77
2018-06-27T04:09:49.570Z,1018.75
2018-06-27T04:10:49.555Z,1018.78
2018-06-27T04:11:49.552Z,1018.79
2018-06-27T04:12:49.610Z,1018.81
2018-06-27T04:13:49.535Z,1018.78
2018-06-27T04:14:49.531Z,1018.83
2018-06-27T04:15:49.514Z,1018.80
2018-06-27T04:16:49.515Z,1018.80
2018-06-27T04:17:49.508Z,1018.81
2018-06-27T04:18:49.491Z,1018.81
2018-06-27T04:19:49.485Z,1018.80
2018-06-27T04:20:49.478Z,1018.87
2018-06-27T04:21:49.467Z,1018.86
2018-06-27T04:22:49.463Z,1018.89
2018-06-27T04:23:49.451Z,1018.86
2018-06-27T04:24:49.443Z,1018.90
2018-06-27T04:25:49.444Z,1018.89
2018-06-27T04:26:49.442Z,1018.93
2018-06-27T04:27:49.421Z,1018.92
2018-06-27T04:28:49.410Z,1018.93
2018-06-27T04:29:49.412Z,1018.90
2018-06-27T04:30:49.393Z,1018.93
2018-06-27T04:31:49.395Z,1018.93
2018-06-27T04:32:49.386Z,1018.90
2018-06-27T04:33:49.376Z,1018.91
2018-06-27T04:34:49.362Z,1018.91
2018-06-27T04:35:49.413Z,1018.91
2018-06-27T04:36:49.357Z,1018.92
2018-06-27T04:37:49.346Z,1018.95
2018-06-27T04:38:49.336Z,1018.94
2018-06-27T04:39:49.329Z,1018.96
2018-06-27T04:40:49.322Z,1018.97
2018-06-27T04:41:49.315Z,1018.96
2018-06-27T04:42:49.303Z,1019.01
2018-06-27T04:43:49.303Z,1019.01
2018-06-27T04:44:49.286Z,1018.98
2018-06-27T04:45:49.280Z,1018.99
2018-06-27T04:46:49.273Z,1019.02
2018-06-27T04:47:49.269Z,1019.02
2018-06-27T04:48:49.260Z,1019.05
2018-06-27T04:49:49.248Z,1019.05
2018-06-27T04:50:49.244Z,1019.01
2018-06-27T04:51:49.237Z,1019.05
2018-06-27T04:52:49.230Z,1019.01
2018-06-27T04:53:49.229Z,1019.01
2018-06-27T04:54:49.228Z,1019.01
2018-06-27T04:55:49.209Z,1018.99
2018-06-27T04:56:49.197Z,1019.03
2018-06-27T04:57:49.197Z,1019.00
2018-06-27T04:58:49.187Z,1019.02
2018-06-27T04:59:49.177Z,1019.05
2018-06-27T05:00:49.171Z,1019.08
2018-06-27T05:01:49.257Z,1019.10
2018-06-27T05:02:49.154Z,1019.09
2018-06-27T05:03:49.145Z,1019.10
2018-06-27T05:04:49.138Z,1019.15
2018-06-27T05:05:49.134Z,1019.16
2018-06-27T05:06:49.123Z,1019.14
2018-06-27T05:07:49.119Z,1019.14
2018-06-27T05:08:49.112Z,1019.14
2018-06-27T05:09:49.102Z,1019.15
2018-06-27T05:10:49.092Z,1019.18
2018-06-27T05:11:49.085Z,1019.17
2018-06-27T05:12:49.079Z,1019.21
2018-06-27T05:13:49.073Z,1019.21
2018-06-27T05:14:49.065Z,1019.18
2018-06-27T05:15:49.065Z,1019.18
2018-06-27T05:16:49.054Z,1019.17
2018-06-27T05:17:49.043Z,1019.19
2018-06-27T05:18:49.035Z,1019.20
2018-06-27T05:19:49.028Z,1019.21
2018-06-27T05:20:49.020Z,1019.21
2018-06-27T05:21:49.079Z,1019.21
2018-06-27T05:22:49.023Z,1019.21
2018-06-27T05:23:49.001Z,1019.22
2018-06-27T05:24:48.997Z,1019.23
2018-06-27T05:25:48.991Z,1019.26
2018-06-27T05:26:48.979Z,1019.23
2018-06-27T05:27:48.973Z,1019.21
2018-06-27T05:28:48.971Z,1019.18
2018-06-27T05:29:48.960Z,1019.24
2018-06-27T05:30:49.465Z,1019.19
2018-06-27T05:31:48.944Z,1019.20
2018-06-27T05:32:48.936Z,1019.24
2018-06-27T05:33:48.965Z,1019.22
2018-06-27T05:34:48.924Z,1019.27
2018-06-27T05:35:48.923Z,1019.29
2018-06-27T05:36:48.914Z,1019.30
2018-06-27T05:37:48.910Z,1019.29
2018-06-27T05:38:48.897Z,1019.29
2018-06-27T05:39:48.899Z,1019.31
2018-06-27T05:40:48.885Z,1019.30
2018-06-27T05:41:48.887Z,1019.25
2018-06-27T05:42:48.877Z,1019.29
2018-06-27T05:43:48.870Z,1019.31
2018-06-27T05:44:48.870Z,1019.36
2018-06-27T05:45:48.865Z,1019.40
2018-06-27T05:46:48.859Z,1019.38
2018-06-27T05:47:48.850Z,1019.38
2018-06-27T05:48:48.841Z,1019.40
2018-06-27T05:49:48.837Z,1019.38
2018-06-27T05:50:48.836Z,1019.38
2018-06-27T05:51:48.830Z,1019.43
2018-06-27T05:52:48.821Z,1019.41
2018-06-27T05:53:48.814Z,1019.40
2018-06-27T05:54:48.810Z,1019.41
2018-06-27T05:55:48.806Z,1019.45
2018-06-27T05:56:48.807Z,1019.43
2018-06-27T05:57:48.801Z,1019.47
2018-06-27T05:58:48.798Z,1019.47
2018-06-27T05:59:48.791Z,1019.45
2018-06-27T06:00:48.787Z,1019.48
2018-06-27T06:01:48.783Z,1019.55
2018-06-27T06:02:48.783Z,1019.52
2018-06-27T06:03:48.783Z,1019.47
2018-06-27T06:04:48.776Z,1019.50
2018-06-27T06:05:48.773Z,1019.46
2018-06-27T06:06:48.765Z,1019.48
2018-06-27T06:07:48.766Z,1019.42
2018-06-27T06:08:48.760Z,1019.48
2018-06-27T06:09:48.761Z,1019.43
2018-06-27T06:10:48.757Z,1019.45
2018-06-27T06:11:48.759Z,1019.42
2018-06-27T06:12:48.754Z,1019.43
2018-06-27T06:13:48.746Z,1019.43
2018-06-27T06:14:48.743Z,1019.44
2018-06-27T06:15:48.742Z,1019.46
2018-06-27T06:16:48.741Z,1019.47
2018-06-27T06:17:48.743Z,1019.49
2018-06-27T06:18:48.736Z,1019.49
2018-06-27T06:19:48.776Z,1019.51
2018-06-27T06:20:48.730Z,1019.48
2018-06-27T06:21:48.728Z,1019.48
2018-06-27T06:22:48.733Z,1019.52
2018-06-27T06:23:48.726Z,1019.45
2018-06-27T06:24:48.725Z,1019.50
2018-06-27T06:25:48.735Z,1019.54
2018-06-27T06:26:48.716Z,1019.50
2018-06-27T06:27:48.713Z,1019.51
2018-06-27T06:28:48.715Z,1019.52
2018-06-27T06:29:48.715Z,1019.49
2018-06-27T06:30:48.712Z,1019.51
2018-06-27T06:31:48.711Z,1019.50
2018-06-27T06:32:48.711Z,1019.48
2018-06-27T06:33:48.705Z,1019.50
2018-06-27T06:34:48.703Z,1019.56
2018-06-27T06:35:48.706Z,1019.51
2018-06-27T06:36:48.956Z,1019.55
2018-06-27T06:37:49.159Z,1019.51
2018-06-27T06:38:49.038Z,1019.50
2018-06-27T06:39:48.899Z,1019.49
2018-06-27T06:40:49.169Z,1019.53
2018-06-27T06:41:48.700Z,1019.54
2018-06-27T06:42:48.704Z,1019.57
2018-06-27T06:43:48.724Z,1019.60
2018-06-27T06:44:48.694Z,1019.64
2018-06-27T06:45:48.700Z,1019.64
2018-06-27T06:46:48.745Z,1019.65
2018-06-27T06:47:48.710Z,1019.63
2018-06-27T06:48:48.689Z,1019.64
2018-06-27T06:49:48.687Z,1019.68
2018-06-27T06:50:48.708Z,1019.67
2018-06-27T06:51:48.693Z,1019.71
2018-06-27T06:52:48.694Z,1019.68
2018-06-27T06:53:48.695Z,1019.68
2018-06-27T06:54:48.690Z,1019.67
2018-06-27T06:55:48.685Z,1019.69
2018-06-27T06:56:48.687Z,1019.68
2018-06-27T06:57:48.688Z,1019.70
2018-06-27T06:58:48.742Z,1019.69
2018-06-27T06:59:48.686Z,1019.69
2018-06-27T07:00:48.686Z,1019.66
2018-06-27T07:01:48.693Z,1019.68
2018-06-27T07:02:48.687Z,1019.69
2018-06-27T07:03:48.693Z,1019.68
2018-06-27T07:04:48.719Z,1019.71
2018-06-27T07:05:48.692Z,1019.69
2018-06-27T07:06:48.696Z,1019.73
2018-06-27T07:07:48.688Z,1019.70
2018-06-27T07:08:48.696Z,1019.68
2018-06-27T07:09:48.691Z,1019.67
2018-06-27T07:10:48.690Z,1019.64
2018-06-27T07:11:48.693Z,1019.69
2018-06-27T07:12:48.694Z,1019.66
2018-06-27T07:13:48.696Z,1019.67
2018-06-27T07:14:48.695Z,1019.64
2018-06-27T07:15:48.697Z,1019.66
2018-06-27T07:16:48.696Z,1019.63
2018-06-27T07:17:48.726Z,1019.62
2018-06-27T07:18:48.703Z,1019.66
2018-06-27T07:19:48.704Z,1019.68
2018-06-27T07:20:48.705Z,1019.61
2018-06-27T07:21:48.706Z,1019.61
2018-06-27T07:22:48.708Z,1019.58
2018-06-27T07:23:48.710Z,1019.62
2018-06-27T07:24:48.711Z,1019.60
2018-06-27T07:25:48.711Z,1019.59
2018-06-27T07:26:48.714Z,1019.57
2018-06-27T07:27:48.716Z,1019.53
2018-06-27T07:28:48.777Z,1019.54
2018-06-27T07:29:48.723Z,1019.52
2018-06-27T07:30:48.721Z,1019.55
2018-06-27T07:31:48.727Z,1019.54
2018-06-27T07:32:48.730Z,1019.55
2018-06-27T07:33:48.732Z,1019.54
2018-06-27T07:34:48.735Z,1019.53
2018-06-27T07:35:48.735Z,1019.53
2018-06-27T07:36:48.736Z,1019.49
2018-06-27T07:37:48.739Z,1019.51
2018-06-27T07:38:48.744Z,1019.54
2018-06-27T07:39:48.749Z,1019.53
2018-06-27T07:40:48.754Z,1019.54
2018-06-27T07:41:48.757Z,1019.53
2018-06-27T07:42:48.758Z,1019.55
2018-06-27T07:43:48.762Z,1019.53
2018-06-27T07:44:48.768Z,1019.52
2018-06-27T07:45:48.766Z,1019.53
2018-06-27T07:46:48.770Z,1019.50
2018-06-27T07:47:48.776Z,1019.51
2018-06-27T07:48:48.780Z,1019.52
2018-06-27T07:49:48.863Z,1019.50
2018-06-27T07:50:48.783Z,1019.56
2018-06-27T07:51:48.785Z,1019.59
2018-06-27T07:52:48.797Z,1019.60
2018-06-27T07:53:48.797Z,1019.59
2018-06-27T07:54:48.799Z,1019.58
2018-06-27T07:55:48.803Z,1019.59
2018-06-27T07:56:48.818Z,1019.56
2018-06-27T07:57:48.806Z,1019.57
2018-06-27T07:58:48.810Z,1019.54
2018-06-27T07:59:48.815Z,1019.56
2018-06-27T08:00:48.818Z,1019.59
2018-06-27T08:01:48.828Z,1019.59
2018-06-27T08:02:48.830Z,1019.55
2018-06-27T08:03:48.836Z,1019.58
2018-06-27T08:04:48.839Z,1019.53
2018-06-27T08:05:48.906Z,1019.55
2018-06-27T08:06:48.849Z,1019.58
2018-06-27T08:07:48.860Z,1019.58
2018-06-27T08:08:48.855Z,1019.62
2018-06-27T08:09:48.859Z,1019.62
2018-06-27T08:10:48.858Z,1019.58
2018-06-27T08:11:48.866Z,1019.63
2018-06-27T08:12:48.869Z,1019.59
2018-06-27T08:13:48.873Z,1019.59
2018-06-27T08:14:48.880Z,1019.57
2018-06-27T08:15:48.886Z,1019.62
2018-06-27T08:16:48.895Z,1019.60
2018-06-27T08:17:48.983Z,1019.56
2018-06-27T08:18:48.894Z,1019.52
2018-06-27T08:19:48.899Z,1019.52
2018-06-27T08:20:48.904Z,1019.50
2018-06-27T08:21:48.908Z,1019.45
2018-06-27T08:22:48.916Z,1019.51
2018-06-27T08:23:48.921Z,1019.49
2018-06-27T08:24:48.926Z,1019.53
2018-06-27T08:25:48.926Z,1019.48
2018-06-27T08:26:48.955Z,1019.52
2018-06-27T08:27:48.937Z,1019.50
2018-06-27T08:28:48.944Z,1019.52
2018-06-27T08:29:48.952Z,1019.53
2018-06-27T08:30:48.967Z,1019.51
2018-06-27T08:31:48.958Z,1019.50
2018-06-27T08:32:48.958Z,1019.56
2018-06-27T08:33:48.967Z,1019.55
2018-06-27T08:34:48.972Z,1019.49
2018-06-27T08:35:48.977Z,1019.53
2018-06-27T08:36:48.981Z,1019.54
2018-06-27T08:37:48.989Z,1019.52
2018-06-27T08:38:48.989Z,1019.48
2018-06-27T08:39:48.995Z,1019.50
2018-06-27T08:40:48.999Z,1019.46
2018-06-27T08:41:49.006Z,1019.46
2018-06-27T08:42:49.015Z,1019.43
2018-06-27T08:43:49.070Z,1019.44
2018-06-27T08:44:49.021Z,1019.39
2018-06-27T08:45:49.036Z,1019.37
2018-06-27T08:46:49.032Z,1019.37
2018-06-27T08:47:49.038Z,1019.34
2018-06-27T08:48:49.065Z,1019.42
2018-06-27T08:49:49.160Z,1019.41
2018-06-27T08:50:49.061Z,1019.39
2018-06-27T08:51:49.064Z,1019.38
2018-06-27T08:52:49.072Z,1019.35
2018-06-27T08:53:49.077Z,1019.32
2018-06-27T08:54:49.084Z,1019.31
2018-06-27T08:55:49.114Z,1019.29
2018-06-27T08:56:49.104Z,1019.26
2018-06-27T08:57:49.116Z,1019.28
2018-06-27T08:58:49.167Z,1019.28
2018-06-27T08:59:49.116Z,1019.31
2018-06-27T09:00:49.123Z,1019.28
2018-06-27T09:01:49.130Z,1019.29
2018-06-27T09:02:49.138Z,1019.26
2018-06-27T09:03:49.146Z,1019.27
2018-06-27T09:04:49.151Z,1019.26
2018-06-27T09:05:49.159Z,1019.27
2018-06-27T09:06:49.167Z,1019.24
2018-06-27T09:07:49.192Z,1019.25
2018-06-27T09:08:49.181Z,1019.23
2018-06-27T09:09:49.192Z,1019.22
2018-06-27T09:10:49.200Z,1019.26
2018-06-27T09:11:49.204Z,1019.20
2018-06-27T09:12:49.212Z,1019.22
2018-06-27T09:13:49.218Z,1019.30
2018-06-27T09:14:49.221Z,1019.25
2018-06-27T09:15:49.230Z,1019.22
2018-06-27T09:16:49.235Z,1019.24
2018-06-27T09:17:49.249Z,1019.24
2018-06-27T09:18:49.256Z,1019.25
2018-06-27T09:19:49.265Z,1019.23
2018-06-27T09:20:49.265Z,1019.27
2018-06-27T09:21:49.272Z,1019.23
2018-06-27T09:22:49.281Z,1019.25
2018-06-27T09:23:49.292Z,1019.19
2018-06-27T09:24:49.300Z,1019.23
2018-06-27T09:25:49.308Z,1019.26
2018-06-27T09:26:49.313Z,1019.21
2018-06-27T09:27:49.323Z,1019.19
2018-06-27T09:28:49.326Z,1019.22
2018-06-27T09:29:49.333Z,1019.20
2018-06-27T09:30:49.348Z,1019.21
2018-06-27T09:31:49.355Z,1019.16
2018-06-27T09:32:49.361Z,1019.24
2018-06-27T09:33:49.367Z,1019.20
2018-06-27T09:34:49.370Z,1019.22
2018-06-27T09:35:49.390Z,1019.19
2018-06-27T09:36:49.386Z,1019.18
2018-06-27T09:37:49.395Z,1019.26
2018-06-27T09:38:49.408Z,1019.25
2018-06-27T09:39:49.416Z,1019.24
2018-06-27T09:40:49.424Z,1019.18
2018-06-27T09:41:49.473Z,1019.22
2018-06-27T09:42:49.436Z,1019.08
2018-06-27T09:43:49.443Z,1019.16
2018-06-27T09:44:49.456Z,1019.14
2018-06-27T09:45:49.463Z,1019.13
2018-06-27T09:46:49.471Z,1019.11
2018-06-27T09:47:49.530Z,1019.13
2018-06-27T09:48:49.484Z,1019.11
2018-06-27T09:49:49.496Z,1019.10
2018-06-27T09:50:49.506Z,1019.12
2018-06-27T09:51:49.513Z,1019.08
2018-06-27T09:52:49.517Z,1019.12
2018-06-27T09:53:49.526Z,1019.12
2018-06-27T09:54:49.552Z,1019.12
2018-06-27T09:55:49.540Z,1019.12
2018-06-27T09:56:49.600Z,1019.11
2018-06-27T09:57:49.557Z,1019.10
2018-06-27T09:58:49.570Z,1019.16
2018-06-27T09:59:49.575Z,1019.12
2018-06-27T10:00:50.147Z,1019.10
2018-06-27T10:01:49.592Z,1019.03
2018-06-27T10:02:49.595Z,1019.08
2018-06-27T10:03:49.606Z,1019.07
2018-06-27T10:04:49.618Z,1018.99
2018-06-27T10:05:49.626Z,1018.97
2018-06-27T10:06:49.629Z,1019.07
2018-06-27T10:07:49.689Z,1019.12
2018-06-27T10:08:49.658Z,1019.04
2018-06-27T10:09:49.652Z,1019.04
2018-06-27T10:10:49.662Z,1018.99
2018-06-27T10:11:49.676Z,1018.98
2018-06-27T10:12:49.684Z,1018.97
2018-06-27T10:13:49.694Z,1018.96
2018-06-27T10:14:49.693Z,1018.91
2018-06-27T10:15:49.701Z,1018.91
2018-06-27T10:16:49.725Z,1018.95
2018-06-27T10:17:49.717Z,1018.97
2018-06-27T10:18:49.726Z,1018.96
2018-06-27T10:19:49.737Z,1018.90
2018-06-27T10:20:49.738Z,1018.96
2018-06-27T10:21:49.768Z,1018.93
2018-06-27T10:22:49.755Z,1018.88
2018-06-27T10:23:49.765Z,1018.87
2018-06-27T10:24:49.774Z,1018.90
2018-06-27T10:25:49.800Z,1018.85
2018-06-27T10:26:49.815Z,1018.86
2018-06-27T10:27:49.795Z,1018.82
2018-06-27T10:28:49.808Z,1018.80
2018-06-27T10:29:49.821Z,1018.82
2018-06-27T10:30:49.823Z,1018.82
2018-06-27T10:31:49.834Z,1018.80
2018-06-27T10:32:49.837Z,1018.80
2018-06-27T10:33:49.849Z,1018.77
2018-06-27T10:34:49.926Z,1018.71
2018-06-27T10:35:50.028Z,1018.73
2018-06-27T10:36:49.875Z,1018.74
2018-06-27T10:37:49.911Z,1018.73
2018-06-27T10:38:49.892Z,1018.68
2018-06-27T10:39:49.917Z,1018.69
2018-06-27T10:40:49.913Z,1018.72
2018-06-27T10:41:49.921Z,1018.73
2018-06-27T10:42:49.925Z,1018.67
2018-06-27T10:43:49.938Z,1018.72
2018-06-27T10:44:49.945Z,1018.70
2018-06-27T10:45:49.956Z,1018.74
2018-06-27T10:46:49.967Z,1018.71
2018-06-27T10:47:49.980Z,1018.66
2018-06-27T10:48:49.991Z,1018.63
2018-06-27T10:49:49.996Z,1018.68
2018-06-27T10:50:50.001Z,1018.67
2018-06-27T10:51:50.009Z,1018.68
2018-06-27T10:52:50.019Z,1018.65
2018-06-27T10:53:50.036Z,1018.67
2018-06-27T10:54:50.048Z,1018.63
2018-06-27T10:55:50.048Z,1018.61
2018-06-27T10:56:50.056Z,1018.63
2018-06-27T10:57:50.065Z,1018.59
2018-06-27T10:58:50.072Z,1018.59
2018-06-27T10:59:50.087Z,1018.59
2018-06-27T11:00:50.090Z,1018.57
2018-06-27T11:01:50.101Z,1018.58
2018-06-27T11:02:50.109Z,1018.52
2018-06-27T11:03:50.116Z,1018.55
2018-06-27T11:04:50.122Z,1018.50
2018-06-27T11:05:50.144Z,1018.52
2018-06-27T11:06:50.141Z,1018.50
2018-06-27T11:07:50.155Z,1018.55
2018-06-27T11:08:50.161Z,1018.49
2018-06-27T11:09:50.174Z,1018.52
2018-06-27T11:10:50.182Z,1018.51
2018-06-27T11:11:50.188Z,1018.48
2018-06-27T11:12:50.195Z,1018.46
2018-06-27T11:13:50.219Z,1018.47
2018-06-27T11:14:50.213Z,1018.45
2018-06-27T11:15:50.220Z,1018.43
2018-06-27T11:16:50.229Z,1018.44
2018-06-27T11:17:50.239Z,1018.35
2018-06-27T11:18:50.244Z,1018.38
2018-06-27T11:19:50.257Z,1018.38
2018-06-27T11:20:50.261Z,1018.32
2018-06-27T11:21:50.299Z,1018.39
2018-06-27T11:22:50.283Z,1018.33
2018-06-27T11:23:50.293Z,1018.31
2018-06-27T11:24:50.300Z,1018.30
2018-06-27T11:25:50.304Z,1018.34
2018-06-27T11:26:50.321Z,1018.31
2018-06-27T11:27:50.325Z,1018.39
2018-06-27T11:28:50.348Z,1018.36
2018-06-27T11:29:50.346Z,1018.37
2018-06-27T11:30:50.354Z,1018.36
2018-06-27T11:31:50.368Z,1018.40
2018-06-27T11:32:50.388Z,1018.37
2018-06-27T11:33:50.369Z,1018.30
2018-06-27T11:34:50.381Z,1018.35
2018-06-27T11:35:50.388Z,1018.29
2018-06-27T11:36:50.398Z,1018.31
2018-06-27T11:37:50.407Z,1018.38
2018-06-27T11:38:50.487Z,1018.35
2018-06-27T11:39:50.420Z,1018.33
2018-06-27T11:40:50.425Z,1018.32
2018-06-27T11:41:50.431Z,1018.30
2018-06-27T11:42:50.438Z,1018.25
2018-06-27T11:43:50.451Z,1018.24
2018-06-27T11:44:50.504Z,1018.35
2018-06-27T11:45:50.461Z,1018.28
2018-06-27T11:46:50.472Z,1018.19
2018-06-27T11:47:50.485Z,1018.15
2018-06-27T11:48:50.490Z,1018.19
2018-06-27T11:49:50.499Z,1018.13
2018-06-27T11:50:50.501Z,1018.16
2018-06-27T11:51:50.510Z,1018.14
2018-06-27T11:52:50.513Z,1018.02
2018-06-27T11:53:50.520Z,1018.17
2018-06-27T11:54:50.532Z,1018.16
2018-06-27T11:55:50.557Z,1018.11
2018-06-27T11:56:50.547Z,1018.00
2018-06-27T11:57:50.551Z,1018.09
2018-06-27T11:58:50.558Z,1018.15
2018-06-27T11:59:50.572Z,1018.15
2018-06-27T12:00:50.573Z,1018.16
2018-06-27T12:01:50.576Z,1018.04
2018-06-27T12:02:50.596Z,1018.14
2018-06-27T12:03:50.592Z,1018.13
2018-06-27T12:04:51.248Z,1018.15
2018-06-27T12:05:50.607Z,1018.15